Time;durP1;ratioP1;P1;durP2;ratioP2;P2;SDS_P1;SDS_P2;PMS_P1;PMS_P2;Temp;Humidity;BMP_temperature;BMP_pressure;BME280_temperature;BME280_humidity;BME280_pressure;Samples;Min_cycle;Max_cycle;Signal;HPM_P1;HPM_P2
2022/03/30 00:00:22;;;;;;;30.75;15.93;;;;;;;8.59;66.83;100747.28;5010803;28;20018;-81
2022/03/30 00:02:48;;;;;;;28.50;15.35;;;;;;;8.57;66.82;100746.38;5018786;28;20033;-80
2022/03/30 00:05:13;;;;;;;31.70;15.80;;;;;;;8.54;66.96;100747.16;5017384;28;20014;-81
2022/03/30 00:07:39;;;;;;;28.60;15.43;;;;;;;8.48;66.95;100749.56;5020453;28;20215;-81
2022/03/30 00:10:05;;;;;;;30.98;16.20;;;;;;;8.48;67.30;100749.56;5018313;28;20418;-81
2022/03/30 00:12:30;;;;;;;31.73;16.73;;;;;;;8.46;67.28;100756.47;5018254;28;20097;-80
2022/03/30 00:14:56;;;;;;;31.80;16.60;;;;;;;8.45;67.37;100752.97;5020168;28;20033;-80
2022/03/30 00:17:22;;;;;;;31.88;15.93;;;;;;;8.42;67.49;100758.03;5019587;28;20247;-81
2022/03/30 00:19:47;;;;;;;28.60;15.30;;;;;;;8.41;67.51;100751.06;5014782;28;20041;-81
2022/03/30 00:22:12;;;;;;;32.63;16.95;;;;;;;8.38;67.90;100752.69;5010789;28;20099;-81
2022/03/30 00:24:44;;;;;;;33.15;16.73;;;;;;;8.35;67.60;100751.75;5014869;28;20021;-81
2022/03/30 00:27:12;;;;;;;30.75;15.90;;;;;;;8.35;67.60;100754.34;5017164;28;20083;-81
2022/03/30 00:29:37;;;;;;;30.88;15.77;;;;;;;8.35;67.43;100750.88;5015115;28;20283;-81
2022/03/30 00:32:04;;;;;;;28.58;15.60;;;;;;;8.35;67.85;100737.91;5016464;28;20018;-81
2022/03/30 00:34:29;;;;;;;28.75;15.75;;;;;;;8.32;68.09;100740.41;5017295;28;20074;-81
2022/03/30 00:36:55;;;;;;;36.35;16.08;;;;;;;8.30;67.67;100736.91;5009843;28;20019;-81
2022/03/30 00:39:20;;;;;;;34.95;16.98;;;;;;;8.24;68.00;100734.09;5020230;28;20022;-81
2022/03/30 00:41:45;;;;;;;32.00;15.68;;;;;;;8.18;67.99;100727.88;5020159;28;20021;-81
2022/03/30 00:44:13;;;;;;;33.58;16.17;;;;;;;8.14;68.36;100731.22;5019514;28;20080;-81
2022/03/30 00:46:41;;;;;;;32.40;15.38;;;;;;;8.10;68.26;100728.47;5019915;28;20022;-81
2022/03/30 00:49:07;;;;;;;31.05;16.48;;;;;;;8.10;68.22;100731.94;5016061;28;20096;-82
2022/03/30 00:51:32;;;;;;;26.70;14.95;;;;;;;8.09;68.06;100739.69;5021465;28;20022;-81
2022/03/30 00:53:57;;;;;;;27.40;14.98;;;;;;;8.07;68.56;100742.22;5020510;28;20018;-81
2022/03/30 00:56:27;;;;;;;30.40;15.77;;;;;;;8.01;68.02;100744.63;5017572;28;20068;-81
2022/03/30 00:58:52;;;;;;;31.45;15.30;;;;;;;7.97;68.30;100734.97;5014038;28;20018;-81
2022/03/30 01:01:19;;;;;;;33.72;16.00;;;;;;;7.95;68.16;100740.13;5013314;28;20037;-81
2022/03/30 01:03:44;;;;;;;31.08;15.52;;;;;;;7.94;68.25;100732.28;5018070;28;20030;-81
2022/03/30 01:06:09;;;;;;;29.80;15.32;;;;;;;7.91;68.21;100724.41;5020479;28;20259;-81
2022/03/30 01:08:35;;;;;;;27.45;15.20;;;;;;;7.86;68.23;100724.25;5021145;28;20032;-76
2022/03/30 01:11:00;;;;;;;30.35;15.52;;;;;;;7.82;68.01;100722.38;5019017;28;20216;-76
2022/03/30 01:13:26;;;;;;;28.05;14.40;;;;;;;7.77;68.09;100714.44;5020017;28;20010;-76
2022/03/30 01:15:51;;;;;;;28.08;15.05;;;;;;;7.73;68.16;100717.75;5015187;28;20032;-76
2022/03/30 01:18:16;;;;;;;28.02;14.60;;;;;;;7.64;68.16;100707.97;5019947;28;20224;-76
2022/03/30 01:20:52;;;;;;;33.40;15.40;;;;;;;7.59;68.94;100709.56;5006538;28;20169;-76
2022/03/30 01:23:17;;;;;;;29.42;15.57;;;;;;;7.56;68.52;100703.38;5020122;28;20026;-76
2022/03/30 01:25:43;;;;;;;35.75;15.95;;;;;;;7.51;68.43;100704.94;5020022;28;20339;-76
2022/03/30 01:28:08;;;;;;;30.00;14.82;;;;;;;7.45;68.68;100706.47;5018741;28;20029;-76
2022/03/30 01:33:18;;;;;;;36.03;15.93;;;;;;;7.33;69.38;100700.88;5021328;28;20017;-76
2022/03/30 01:35:43;;;;;;;30.63;15.10;;;;;;;7.29;69.60;100705.06;5022082;28;20030;-76
2022/03/30 01:38:09;;;;;;;29.02;15.25;;;;;;;7.26;69.34;100701.50;5019966;28;20018;-76
2022/03/30 01:40:35;;;;;;;33.83;16.10;;;;;;;7.23;69.90;100701.41;5010903;28;20033;-76
2022/03/30 01:43:00;;;;;;;34.47;15.93;;;;;;;7.18;70.12;100709.00;5016838;28;20034;-76
2022/03/30 01:45:26;;;;;;;30.55;14.70;;;;;;;7.16;70.38;100704.63;5014186;28;20013;-76
2022/03/30 01:47:54;;;;;;;30.20;15.05;;;;;;;7.12;70.92;100708.78;5023322;28;20022;-76
2022/03/30 01:50:21;;;;;;;30.77;15.48;;;;;;;7.11;70.30;100709.59;5016692;28;20014;-76
2022/03/30 01:52:46;;;;;;;27.13;14.80;;;;;;;7.10;70.44;100706.16;5023235;28;20057;-76
2022/03/30 01:55:12;;;;;;;31.77;15.27;;;;;;;7.10;70.03;100698.38;5021121;28;20018;-76
2022/03/30 01:57:37;;;;;;;28.80;14.48;;;;;;;7.09;70.62;100698.31;5014094;28;20030;-76
2022/03/30 02:00:04;;;;;;;30.33;15.07;;;;;;;7.04;70.85;100692.97;5017729;28;20196;-76
2022/03/30 02:02:30;;;;;;;32.63;15.00;;;;;;;6.97;70.67;100688.41;5022887;28;20215;-76
2022/03/30 02:04:55;;;;;;;36.20;15.68;;;;;;;6.94;70.63;100693.47;5023362;28;20013;-76
2022/03/30 02:07:20;;;;;;;34.95;15.65;;;;;;;6.92;70.72;100687.34;5011769;28;20029;-76
2022/03/30 02:09:46;;;;;;;31.42;15.88;;;;;;;6.87;71.18;100683.72;5023437;28;20133;-76
2022/03/30 02:12:11;;;;;;;30.25;15.23;;;;;;;6.86;71.43;100684.53;5017359;28;20014;-76
2022/03/30 02:14:37;;;;;;;31.98;16.45;;;;;;;6.81;71.39;100680.91;5018421;28;20239;-76
2022/03/30 02:17:02;;;;;;;28.17;14.68;;;;;;;6.78;71.50;100682.56;5017727;28;20038;-81
2022/03/30 02:19:29;;;;;;;35.95;16.42;;;;;;;6.77;71.43;100674.75;5017998;28;20018;-81
2022/03/30 02:21:54;;;;;;;33.05;15.43;;;;;;;6.75;71.15;100674.69;5011710;28;20076;-81
2022/03/30 02:24:19;;;;;;;32.90;15.98;;;;;;;6.71;71.40;100672.81;5017497;28;20022;-81
2022/03/30 02:26:47;;;;;;;35.13;16.00;;;;;;;6.68;71.30;100671.81;5023561;28;20017;-81
2022/03/30 02:29:12;;;;;;;36.92;15.77;;;;;;;6.62;71.53;100664.72;5013550;28;20077;-81
2022/03/30 02:31:37;;;;;;;33.55;16.80;;;;;;;6.59;71.06;100656.84;5015097;28;20017;-81
2022/03/30 02:34:03;;;;;;;35.78;16.20;;;;;;;6.57;71.85;100648.13;5022388;28;20280;-81
2022/03/30 02:36:28;;;;;;;31.10;15.25;;;;;;;6.54;71.80;100646.28;5014687;28;20025;-81
2022/03/30 02:38:53;;;;;;;32.95;15.50;;;;;;;6.54;72.41;100635.06;5019350;28;20273;-81
2022/03/30 02:41:19;;;;;;;30.00;15.25;;;;;;;6.50;71.73;100634.06;5021717;28;20084;-81
2022/03/30 02:43:44;;;;;;;33.63;16.13;;;;;;;6.51;72.20;100640.13;5015924;28;20261;-81
2022/03/30 02:46:09;;;;;;;30.08;15.43;;;;;;;6.52;72.08;100634.16;5020173;28;20275;-80
2022/03/30 02:48:35;;;;;;;29.65;14.38;;;;;;;6.51;72.15;100634.97;5019972;28;20263;-81
2022/03/30 02:51:05;;;;;;;30.85;14.95;;;;;;;6.46;72.77;100633.91;5014126;28;20021;-81
2022/03/30 02:53:32;;;;;;;31.63;15.10;;;;;;;6.44;72.27;100637.34;5020462;28;20288;-81
2022/03/30 02:55:58;;;;;;;29.13;14.68;;;;;;;6.46;72.24;100633.91;5018970;28;20029;-80
2022/03/30 02:58:25;;;;;;;32.15;15.95;;;;;;;6.44;72.13;100624.41;5021547;28;20017;-81
2022/03/30 03:00:51;;;;;;;30.95;14.80;;;;;;;6.41;72.21;100616.50;5016613;28;20018;-81
2022/03/30 03:03:16;;;;;;;34.83;16.10;;;;;;;6.41;72.23;100624.25;5021793;28;20082;-81
2022/03/30 03:05:42;;;;;;;32.72;15.38;;;;;;;6.41;72.00;100629.44;5016067;28;20165;-81
2022/03/30 03:08:10;;;;;;;32.72;14.77;;;;;;;6.39;71.90;100623.31;5013358;28;20044;-80
2022/03/30 03:10:37;;;;;;;30.90;14.98;;;;;;;6.36;72.00;100618.03;5016966;28;20295;-81
2022/03/30 03:13:04;;;;;;;32.92;15.05;;;;;;;6.36;72.44;100622.34;5021439;28;20021;-80
2022/03/30 03:15:34;;;;;;;34.42;14.70;;;;;;;6.37;71.74;100625.00;5016114;28;20038;-80
2022/03/30 03:18:01;;;;;;;29.58;14.45;;;;;;;6.35;71.96;100620.56;5015090;28;20049;-76
2022/03/30 03:20:27;;;;;;;32.45;15.00;;;;;;;6.30;72.29;100619.50;5020766;28;20022;-76
2022/03/30 03:22:52;;;;;;;32.90;14.95;;;;;;;6.27;72.31;100625.44;5018694;28;20268;-76
2022/03/30 03:25:17;;;;;;;32.08;15.20;;;;;;;6.21;72.55;100622.63;5021695;28;20291;-76
2022/03/30 03:27:43;;;;;;;31.67;14.63;;;;;;;6.14;73.18;100610.28;5020373;28;20052;-76
2022/03/30 03:30:09;;;;;;;32.50;14.60;;;;;;;6.09;73.03;100612.72;5012163;28;20026;-76
2022/03/30 03:32:35;;;;;;;33.00;14.30;;;;;;;6.03;73.44;100610.78;5009709;28;20084;-75
2022/03/30 03:35:00;;;;;;;33.80;15.73;;;;;;;6.01;73.75;100602.09;5018935;28;20021;-75
2022/03/30 03:37:26;;;;;;;33.38;15.95;;;;;;;6.00;73.57;100607.19;5021846;28;20029;-76
2022/03/30 03:39:51;;;;;;;35.70;15.35;;;;;;;5.99;73.53;100598.53;5013521;28;20026;-75
2022/03/30 03:42:16;;;;;;;31.77;15.63;;;;;;;5.99;73.41;100598.53;5021501;28;20085;-75
2022/03/30 03:44:42;;;;;;;37.08;15.07;;;;;;;5.99;73.24;100605.44;5020406;28;20010;-75
2022/03/30 03:47:09;;;;;;;29.17;14.68;;;;;;;5.98;73.57;100599.38;5018154;28;20030;-76
2022/03/30 03:49:35;;;;;;;29.42;13.93;;;;;;;5.96;73.04;100590.63;5021352;28;20041;-76
2022/03/30 03:52:00;;;;;;;32.25;15.13;;;;;;;5.94;73.24;100592.28;5019827;28;20030;-76
2022/03/30 03:54:26;;;;;;;30.20;15.35;;;;;;;5.91;73.16;100598.22;5017713;28;20061;-75
2022/03/30 03:56:51;;;;;;;35.40;14.85;;;;;;;5.86;72.91;100594.56;5019392;28;20083;-75
2022/03/30 03:59:16;;;;;;;34.50;15.88;;;;;;;5.82;73.14;100591.81;5010323;28;20018;-75
2022/03/30 04:01:42;;;;;;;32.88;14.57;;;;;;;5.79;73.00;100591.69;5018174;28;20017;-75
2022/03/30 04:04:07;;;;;;;32.65;14.85;;;;;;;5.74;72.50;100588.94;5015132;28;20025;-75
2022/03/30 04:06:33;;;;;;;31.35;14.68;;;;;;;5.70;72.94;100589.63;5019020;28;20322;-75
2022/03/30 04:08:59;;;;;;;35.10;15.32;;;;;;;5.61;73.03;100592.75;5017886;28;20044;-75
2022/03/30 04:11:24;;;;;;;30.73;14.13;;;;;;;5.57;72.98;100596.03;5017880;28;20101;-75
2022/03/30 04:13:50;;;;;;;30.90;14.75;;;;;;;5.53;73.38;100583.78;5017758;28;20060;-75
2022/03/30 04:16:16;;;;;;;32.35;15.00;;;;;;;5.50;73.08;100596.59;5011718;28;20027;-81
2022/03/30 04:18:43;;;;;;;33.15;15.18;;;;;;;5.44;73.16;100588.59;5020869;28;20040;-81
2022/03/30 04:21:09;;;;;;;29.45;14.63;;;;;;;5.38;73.33;100581.47;5021402;28;20034;-81
2022/03/30 04:23:34;;;;;;;31.73;14.00;;;;;;;5.34;73.76;100577.88;5020379;28;20033;-81
2022/03/30 04:26:00;;;;;;;31.05;14.65;;;;;;;5.28;74.13;100582.81;5008697;28;20014;-81
2022/03/30 04:28:25;;;;;;;33.60;14.73;;;;;;;5.23;74.36;100582.63;5018238;28;20116;-81
2022/03/30 04:30:50;;;;;;;32.65;14.98;;;;;;;5.17;74.18;100576.31;5011767;28;20029;-81
2022/03/30 04:33:16;;;;;;;34.17;14.95;;;;;;;5.13;73.87;100582.19;5018658;28;20022;-81
2022/03/30 04:35:41;;;;;;;29.90;13.65;;;;;;;5.05;73.13;100580.19;5015729;28;20316;-81
2022/03/30 04:38:06;;;;;;;31.30;14.82;;;;;;;5.01;73.84;100585.13;5020066;28;20034;-81
2022/03/30 04:40:32;;;;;;;32.47;14.18;;;;;;;4.93;73.28;100581.38;5015999;28;20057;-81
2022/03/30 04:42:58;;;;;;;30.95;14.38;;;;;;;4.84;73.86;100584.44;5015376;28;20065;-81
2022/03/30 04:45:24;;;;;;;31.40;14.07;;;;;;;4.77;74.21;100592.75;5015186;28;20015;-81
2022/03/30 04:47:53;;;;;;;35.55;14.82;;;;;;;4.74;75.07;100595.19;5019091;28;20022;-81
2022/03/30 04:50:18;;;;;;;34.20;15.20;;;;;;;4.67;75.50;100594.03;5011361;28;20026;-81
2022/03/30 04:52:43;;;;;;;35.05;15.13;;;;;;;4.60;75.12;100590.28;5012988;28;20231;-81
2022/03/30 04:55:10;;;;;;;36.28;15.57;;;;;;;4.58;75.53;100597.09;5020818;28;20025;-81
2022/03/30 04:57:36;;;;;;;32.55;14.20;;;;;;;4.52;75.13;100595.13;5020657;28;20029;-81
2022/03/30 05:00:03;;;;;;;34.35;14.68;;;;;;;4.48;75.41;100594.94;5037669;28;20013;-81
2022/03/30 05:02:32;;;;;;;32.45;15.43;;;;;;;4.43;75.73;100596.41;5020552;28;20057;-81
2022/03/30 05:04:57;;;;;;;36.00;15.73;;;;;;;4.36;76.16;100592.69;5019126;28;20056;-81
2022/03/30 05:07:22;;;;;;;37.53;16.10;;;;;;;4.31;75.75;100599.34;5021493;28;20268;-81
2022/03/30 05:09:47;;;;;;;34.45;15.40;;;;;;;4.25;76.22;100592.19;5014677;28;20029;-81
2022/03/30 05:12:13;;;;;;;34.60;15.70;;;;;;;4.24;76.43;100594.72;5011439;28;20013;-81
2022/03/30 05:14:38;;;;;;;33.78;15.80;;;;;;;4.21;76.59;100590.28;5017716;28;20030;-81
2022/03/30 05:17:04;;;;;;;35.53;16.13;;;;;;;4.20;77.32;100595.38;5021546;28;20054;-75
2022/03/30 05:19:29;;;;;;;39.05;16.52;;;;;;;4.19;77.67;100589.34;5018416;28;20021;-76
2022/03/30 05:21:55;;;;;;;39.58;16.50;;;;;;;4.22;77.78;100580.88;5019429;28;20201;-75
2022/03/30 05:24:20;;;;;;;34.17;14.95;;;;;;;4.21;77.52;100579.97;5021522;28;20021;-75
2022/03/30 05:26:46;;;;;;;39.15;16.05;;;;;;;4.24;78.16;100580.09;5022908;28;20268;-75
2022/03/30 05:29:12;;;;;;;34.83;15.48;;;;;;;4.26;77.94;100575.91;5022169;28;20030;-75
2022/03/30 05:31:37;;;;;;;38.17;15.07;;;;;;;4.27;77.47;100572.53;5024905;28;20280;-75
2022/03/30 05:34:03;;;;;;;38.15;15.75;;;;;;;4.32;77.51;100583.06;5022335;28;20086;-75
2022/03/30 05:36:29;;;;;;;36.55;15.85;;;;;;;4.31;77.21;100578.69;5013460;28;20257;-75
2022/03/30 05:38:55;;;;;;;36.83;15.93;;;;;;;4.27;77.24;100588.00;5024331;28;20025;-75
2022/03/30 05:41:20;;;;;;;37.72;14.90;;;;;;;4.25;77.10;100576.72;5023874;28;20032;-75
2022/03/30 05:43:46;;;;;;;31.15;14.95;;;;;;;4.21;76.86;100579.97;5021735;28;20026;-75
2022/03/30 05:46:11;;;;;;;35.92;14.57;;;;;;;4.20;77.13;100574.75;5021246;28;20022;-76
2022/03/30 05:48:38;;;;;;;32.53;14.10;;;;;;;4.22;77.03;100576.59;5022342;28;20045;-81
2022/03/30 05:51:03;;;;;;;38.42;16.00;;;;;;;4.22;76.74;100579.16;5016744;28;20018;-80
2022/03/30 05:53:28;;;;;;;32.58;15.18;;;;;;;4.22;76.85;100576.59;5020127;28;20053;-81
2022/03/30 05:55:55;;;;;;;39.88;15.80;;;;;;;4.20;76.90;100575.66;5011234;28;20026;-80
2022/03/30 05:58:20;;;;;;;33.50;15.38;;;;;;;4.20;77.04;100575.66;5022188;28;20022;-81
2022/03/30 06:00:46;;;;;;;30.98;14.82;;;;;;;4.20;76.82;100579.91;5021875;28;20030;-81
2022/03/30 06:03:11;;;;;;;36.40;15.20;;;;;;;4.20;77.49;100578.22;5021833;28;20025;-81
2022/03/30 06:05:37;;;;;;;32.17;15.45;;;;;;;4.20;77.72;100577.31;5014548;28;20025;-81
2022/03/30 06:08:04;;;;;;;36.83;15.77;;;;;;;4.21;77.88;100581.69;5019518;28;20018;-80
2022/03/30 06:10:29;;;;;;;39.05;16.75;;;;;;;4.24;77.74;100581.81;5016288;28;20352;-81
2022/03/30 06:12:56;;;;;;;36.97;15.02;;;;;;;4.27;77.70;100585.44;5023305;28;20355;-81
2022/03/30 06:15:22;;;;;;;37.83;16.52;;;;;;;4.29;77.75;100588.06;5020458;28;20021;-81
2022/03/30 06:17:48;;;;;;;36.10;15.23;;;;;;;4.30;77.33;100590.72;5019689;28;20077;-81
2022/03/30 06:20:14;;;;;;;36.78;15.23;;;;;;;4.34;77.99;100599.47;5021394;28;20033;-81
2022/03/30 06:22:43;;;;;;;35.70;14.85;;;;;;;4.37;78.14;100596.16;5014650;28;20045;-81
2022/03/30 06:25:12;;;;;;;35.70;14.88;;;;;;;4.40;77.79;100599.72;5014020;28;20141;-81
2022/03/30 06:27:39;;;;;;;40.57;15.10;;;;;;;4.44;78.19;100598.19;5021615;28;20016;-81
2022/03/30 06:30:05;;;;;;;35.88;15.70;;;;;;;4.48;77.71;100593.22;5018929;28;20076;-81
2022/03/30 06:32:31;;;;;;;36.88;16.30;;;;;;;4.55;77.76;100602.13;5014131;28;20030;-81
2022/03/30 06:34:57;;;;;;;38.13;15.93;;;;;;;4.63;77.78;100600.75;5021793;28;20297;-81
2022/03/30 06:37:22;;;;;;;37.85;15.52;;;;;;;4.67;77.45;100594.91;5016504;28;20053;-82
2022/03/30 06:39:49;;;;;;;42.88;16.42;;;;;;;4.77;77.70;100578.13;5020810;28;20022;-82
2022/03/30 06:42:16;;;;;;;46.28;16.85;;;;;;;4.85;77.87;100581.03;5021449;28;20026;-83
2022/03/30 06:44:42;;;;;;;42.88;17.02;;;;;;;4.95;77.54;100583.16;5016075;28;20026;-83
2022/03/30 06:47:07;;;;;;;37.00;16.20;;;;;;;5.08;77.26;100581.13;5019182;28;20201;-82
2022/03/30 06:49:33;;;;;;;37.90;15.73;;;;;;;5.21;76.95;100573.94;5017487;28;20225;-82
2022/03/30 06:51:58;;;;;;;34.05;15.30;;;;;;;6.12;75.36;100583.50;5020622;28;20036;-83
2022/03/30 06:54:23;;;;;;;33.33;15.88;;;;;;;7.59;70.55;100586.78;5016481;28;20030;-83
2022/03/30 06:56:49;;;;;;;32.63;14.48;;;;;;;9.24;64.60;100578.47;5017187;28;20049;-83
2022/03/30 06:59:14;;;;;;;33.88;13.98;;;;;;;11.01;58.78;100567.41;5020808;28;20033;-83
2022/03/30 07:01:40;;;;;;;36.53;15.07;;;;;;;12.55;53.31;100560.91;5018332;28;20063;-83
2022/03/30 07:04:05;;;;;;;32.40;13.93;;;;;;;13.99;50.18;100566.44;5020916;28;20026;-84
2022/03/30 07:06:30;;;;;;;29.27;13.70;;;;;;;15.26;46.84;100566.78;5013814;28;20034;-83
2022/03/30 07:11:40;;;;;;;28.75;13.57;;;;;;;16.49;42.98;100568.22;5012282;28;20028;-84
2022/03/30 07:14:06;;;;;;;31.27;16.88;;;;;;;16.73;42.34;100554.06;5010739;28;20018;-84
2022/03/30 07:16:31;;;;;;;29.83;15.55;;;;;;;16.73;41.19;100559.31;5020478;28;20096;-83
2022/03/30 07:18:56;;;;;;;27.60;13.73;;;;;;;16.88;41.07;100557.50;5019895;28;20288;-84
2022/03/30 07:21:22;;;;;;;26.52;14.43;;;;;;;17.24;40.42;100560.75;5017433;28;20298;-84
2022/03/30 07:23:48;;;;;;;28.63;15.38;;;;;;;17.21;39.94;100564.28;5013010;28;20026;-84
2022/03/30 07:26:13;;;;;;;27.73;17.05;;;;;;;17.34;40.63;100570.31;5020264;28;20085;-83
2022/03/30 07:28:39;;;;;;;27.75;14.90;;;;;;;17.00;40.92;100557.41;5022477;28;20234;-83
2022/03/30 07:31:04;;;;;;;27.50;15.35;;;;;;;16.08;42.33;100564.91;5019000;28;20311;-83
2022/03/30 07:33:32;;;;;;;26.63;16.55;;;;;;;14.87;45.23;100563.25;5019420;28;20021;-83
2022/03/30 07:35:58;;;;;;;29.45;14.93;;;;;;;13.77;47.45;100569.81;5019094;28;20014;-84
2022/03/30 07:38:23;;;;;;;26.75;14.13;;;;;;;12.85;49.52;100563.81;5014822;28;20100;-84
2022/03/30 07:40:50;;;;;;;26.17;13.50;;;;;;;12.14;51.63;100575.22;5010031;28;20073;-82
2022/03/30 07:43:17;;;;;;;29.83;14.48;;;;;;;11.58;54.29;100573.53;5013845;28;20022;-83
2022/03/30 07:45:43;;;;;;;28.10;13.77;;;;;;;11.17;55.50;100561.59;5018248;28;20268;-83
2022/03/30 07:48:09;;;;;;;26.77;13.80;;;;;;;10.83;55.79;100561.00;5017142;28;20088;-83
2022/03/30 07:50:36;;;;;;;27.48;13.63;;;;;;;10.56;57.67;100562.28;5014065;28;20038;-83
2022/03/30 07:53:01;;;;;;;28.30;14.57;;;;;;;10.36;57.96;100561.88;5016280;28;20030;-83
2022/03/30 07:55:28;;;;;;;32.30;16.00;;;;;;;10.16;59.53;100560.56;5016317;28;20253;-83
2022/03/30 07:57:54;;;;;;;25.92;13.98;;;;;;;10.05;59.02;100569.03;5016380;28;20022;-77
2022/03/30 08:00:21;;;;;;;28.75;14.20;;;;;;;10.00;61.18;100568.03;5019337;28;20024;-77
2022/03/30 08:02:47;;;;;;;28.83;13.88;;;;;;;9.92;60.64;100567.91;5019478;28;20036;-77
2022/03/30 08:05:13;;;;;;;26.77;13.02;;;;;;;9.92;60.92;100567.00;5013311;28;20289;-77
2022/03/30 08:07:49;;;;;;;26.98;13.73;;;;;;;9.95;61.51;100566.19;5022699;28;20037;-77
2022/03/30 08:10:14;;;;;;;29.25;14.02;;;;;;;9.94;60.91;100564.47;5022303;28;20061;-77
2022/03/30 08:12:40;;;;;;;26.73;13.18;;;;;;;9.92;60.73;100570.50;5022044;28;20231;-76
2022/03/30 08:15:08;;;;;;;27.90;13.65;;;;;;;9.91;59.59;100570.47;5021952;28;20033;-76
2022/03/30 08:17:34;;;;;;;25.88;12.90;;;;;;;9.87;59.60;100579.03;5022744;28;20045;-76
2022/03/30 08:19:59;;;;;;;30.50;14.13;;;;;;;9.82;60.59;100576.34;5023130;28;20025;-76
2022/03/30 08:22:31;;;;;;;28.80;13.38;;;;;;;9.88;60.98;100581.69;5015814;28;20315;-76
2022/03/30 08:25:03;;;;;;;29.45;14.02;;;;;;;9.91;61.06;100578.28;5021412;28;20026;-77
2022/03/30 08:27:31;;;;;;;32.22;13.23;;;;;;;9.96;62.08;100579.22;5020620;28;20260;-76
2022/03/30 08:29:57;;;;;;;28.02;14.52;;;;;;;9.99;60.97;100574.09;5020844;28;20049;-76
2022/03/30 08:32:23;;;;;;;32.15;13.63;;;;;;;10.04;61.19;100571.63;5024665;28;20017;-77
2022/03/30 08:34:51;;;;;;;29.63;13.45;;;;;;;10.09;61.20;100572.56;5023133;28;20117;-77
2022/03/30 08:37:16;;;;;;;27.65;12.80;;;;;;;10.16;60.21;100566.66;5012903;28;20046;-78
2022/03/30 08:39:42;;;;;;;27.83;13.52;;;;;;;10.21;60.20;100566.72;5025617;28;20068;-77
2022/03/30 08:42:08;;;;;;;30.13;14.70;;;;;;;10.24;60.86;100559.88;5025994;28;20149;-77
2022/03/30 08:44:36;;;;;;;23.27;12.68;;;;;;;10.32;60.29;100569.56;5026453;28;20057;-77
2022/03/30 08:47:01;;;;;;;25.67;12.80;;;;;;;10.32;59.74;100561.75;5026942;28;20109;-77
2022/03/30 08:49:33;;;;;;;24.50;13.20;;;;;;;10.37;58.73;100560.13;5026094;28;20054;-77
2022/03/30 08:51:59;;;;;;;24.67;12.35;;;;;;;10.42;60.62;100563.72;5022239;28;20049;-77
2022/03/30 08:54:24;;;;;;;25.13;13.70;;;;;;;10.51;61.06;100547.41;5014836;28;20022;-77
2022/03/30 08:56:50;;;;;;;29.77;16.17;;;;;;;10.63;59.58;100554.56;5023983;28;20038;-77
2022/03/30 08:59:18;;;;;;;42.33;22.73;;;;;;;10.69;60.34;100562.47;5026359;28;20029;-77
2022/03/30 09:01:44;;;;;;;34.00;20.58;;;;;;;10.69;58.77;100552.06;5025385;28;20018;-77
2022/03/30 09:04:12;;;;;;;176.80;118.95;;;;;;;10.72;59.15;100554.75;5024467;28;20040;-76
2022/03/30 09:06:46;;;;;;;120.97;73.10;;;;;;;10.75;59.10;100549.59;5025003;28;20010;-76
2022/03/30 09:09:14;;;;;;;151.10;105.15;;;;;;;10.78;58.99;100547.03;5024371;28;20040;-77
2022/03/30 09:11:52;;;;;;;107.20;72.60;;;;;;;10.89;60.23;100544.59;5026154;28;20025;-77
2022/03/30 09:14:19;;;;;;;37.15;25.48;;;;;;;10.95;59.65;100553.41;5026356;28;20279;-77
2022/03/30 09:16:50;;;;;;;89.50;58.20;;;;;;;10.99;59.40;100551.72;5025236;28;20042;-77
2022/03/30 09:19:18;;;;;;;29.02;14.20;;;;;;;11.04;60.16;100551.84;5018432;28;20037;-77
2022/03/30 09:21:53;;;;;;;39.83;22.52;;;;;;;11.10;59.42;100547.56;5026034;28;20026;-77
2022/03/30 09:24:21;;;;;;;37.88;23.67;;;;;;;11.13;58.14;100546.75;5025888;28;20048;-77
2022/03/30 09:26:47;;;;;;;24.65;12.35;;;;;;;11.09;57.76;100543.25;5019398;28;20049;-82
2022/03/30 09:29:13;;;;;;;77.80;50.13;;;;;;;11.10;57.81;100538.88;5026593;28;20029;-83
2022/03/30 09:31:43;;;;;;;23.58;12.50;;;;;;;11.11;57.30;100540.66;5016555;28;20030;-82
2022/03/30 09:34:09;;;;;;;25.88;13.60;;;;;;;11.09;57.83;100538.03;5023197;28;20006;-82
2022/03/30 09:36:39;;;;;;;22.52;12.13;;;;;;;11.05;57.79;100540.53;5023786;28;20025;-82
2022/03/30 09:39:06;;;;;;;25.70;12.57;;;;;;;11.01;57.50;100528.28;5020236;28;20018;-82
2022/03/30 09:41:48;;;;;;;23.10;12.02;;;;;;;11.03;58.09;100531.81;5022909;28;20014;-82
2022/03/30 09:44:14;;;;;;;27.83;15.75;;;;;;;11.08;59.37;100524.94;5023291;28;20028;-82
2022/03/30 09:47:07;;;;;;;24.20;13.90;;;;;;;11.10;58.39;100518.91;5024740;28;20026;-82
2022/03/30 09:49:38;;;;;;;21.63;12.15;;;;;;;11.12;58.03;100521.53;5015388;28;20040;-82
2022/03/30 09:52:11;;;;;;;33.92;14.77;;;;;;;11.21;58.77;100515.56;5012872;28;20022;-82
2022/03/30 09:54:47;;;;;;;28.45;16.98;;;;;;;11.29;57.81;100517.44;5024185;28;20021;-82
2022/03/30 09:57:20;;;;;;;29.27;14.27;;;;;;;11.30;57.69;100516.59;5024206;28;20017;-82
2022/03/30 10:00:08;;;;;;;30.10;16.63;;;;;;;11.39;57.64;100512.38;5024870;28;20093;-82
2022/03/30 10:02:45;;;;;;;27.80;15.15;;;;;;;11.54;59.86;100504.75;5023798;28;20028;-83
2022/03/30 10:05:13;;;;;;;25.35;15.25;;;;;;;11.71;58.17;100514.56;5020137;28;20084;-83
2022/03/30 10:07:39;;;;;;;26.20;14.98;;;;;;;11.78;56.19;100514.66;5014097;28;20022;-83
2022/03/30 10:10:06;;;;;;;22.90;13.45;;;;;;;11.72;54.69;100508.50;5008123;28;20041;-83
2022/03/30 10:12:32;;;;;;;28.50;17.25;;;;;;;11.74;56.49;100504.19;5015174;28;20080;-83
2022/03/30 10:14:57;;;;;;;23.40;13.30;;;;;;;11.77;55.48;100501.59;5007528;28;20280;-83
2022/03/30 10:17:25;;;;;;;25.25;15.13;;;;;;;11.85;56.46;100497.38;5006137;28;20034;-82
2022/03/30 10:19:55;;;;;;;29.83;17.25;;;;;;;11.92;55.57;100501.81;5005088;28;20046;-83
2022/03/30 10:23:04;;;;;;;25.17;14.13;;;;;;;12.06;56.59;100494.16;5016969;28;20039;-83
2022/03/30 10:25:48;;;;;;;27.13;14.27;;;;;;;12.25;56.85;100495.28;5009045;28;20018;-82
2022/03/30 10:28:39;;;;;;;32.72;19.27;;;;;;;12.36;54.78;100484.91;5008997;28;20014;-83
2022/03/30 10:31:04;;;;;;;32.50;19.73;;;;;;;12.47;54.73;100492.84;5013262;28;20121;-83
2022/03/30 10:33:32;;;;;;;26.85;15.68;;;;;;;12.43;53.03;100484.13;5018803;28;20033;-82
2022/03/30 10:36:00;;;;;;;25.45;13.20;;;;;;;12.34;52.00;100479.69;5022545;28;20021;-83
2022/03/30 10:38:26;;;;;;;26.88;14.00;;;;;;;12.31;54.22;100476.16;5022370;28;20122;-83
2022/03/30 10:41:06;;;;;;;27.40;14.60;;;;;;;12.31;54.20;100473.53;5016149;28;20075;-83
2022/03/30 10:43:32;;;;;;;25.45;15.55;;;;;;;12.27;53.66;100467.41;5022860;28;20057;-83
2022/03/30 10:46:02;;;;;;;25.50;14.20;;;;;;;12.32;53.47;100464.84;5021485;28;20017;-83
2022/03/30 10:48:27;;;;;;;26.30;13.68;;;;;;;12.43;53.45;100467.59;5023548;28;20020;-83
2022/03/30 10:51:14;;;;;;;32.42;16.25;;;;;;;12.43;55.05;100458.00;5020935;28;20014;-83
2022/03/30 10:53:50;;;;;;;25.25;13.63;;;;;;;12.43;54.55;100452.78;5021664;28;20108;-83
2022/03/30 10:56:15;;;;;;;24.00;13.07;;;;;;;12.52;55.56;100457.19;5021156;28;20036;-82
2022/03/30 10:58:49;;;;;;;24.63;14.13;;;;;;;12.60;54.70;100458.16;5021977;28;20092;-81
2022/03/30 11:01:18;;;;;;;21.98;12.85;;;;;;;12.60;52.26;100450.31;5024177;28;20053;-82
2022/03/30 11:04:18;;;;;;;22.15;13.55;;;;;;;12.68;54.67;100440.78;5023824;28;20220;-82
2022/03/30 11:07:13;;;;;;;27.15;13.57;;;;;;;12.81;54.84;100438.28;5021388;28;20033;-83
2022/03/30 11:09:40;;;;;;;26.30;15.10;;;;;;;12.88;53.36;100437.47;5020659;28;20112;-83
2022/03/30 11:12:13;;;;;;;23.38;12.32;;;;;;;12.83;51.98;100428.69;5021069;28;20181;-82
2022/03/30 11:14:44;;;;;;;22.00;13.00;;;;;;;12.76;51.10;100429.50;5020327;28;20009;-83
2022/03/30 11:17:14;;;;;;;23.65;13.48;;;;;;;12.84;53.96;100427.84;5019109;28;20268;-83
2022/03/30 11:19:57;;;;;;;24.92;14.23;;;;;;;12.90;54.12;100424.41;5020838;28;20050;-83